Time;durP1;ratioP1;P1;durP2;ratioP2;P2;SDS_P1;SDS_P2;PMS_P1;PMS_P2;Temp;Humidity;BMP_temperature;BMP_pressure;BME280_temperature;BME280_humidity;BME280_pressure;Samples;Min_cycle;Max_cycle;Signal;HPM_P1;HPM_P2
2022/12/10 00:01:45;;;;;;;31.77;18.13;;;1.80;99.90;;;5.49;54.72;96368.69;5004429;28;20044;-59
2022/12/10 00:04:13;;;;;;;30.73;16.60;;;1.90;99.90;;;5.50;54.27;96368.50;5005790;28;20038;-59
2022/12/10 00:06:42;;;;;;;27.80;16.13;;;1.90;99.90;;;5.51;54.49;96366.72;5004461;28;20349;-59
2022/12/10 00:09:14;;;;;;;28.43;16.30;;;1.90;99.90;;;5.55;54.39;96365.41;5005645;28;20240;-59
2022/12/10 00:11:42;;;;;;;28.53;16.27;;;1.90;99.90;;;5.59;54.83;96372.00;5004438;28;20046;-59
2022/12/10 00:14:13;;;;;;;26.17;15.90;;;1.90;99.90;;;5.60;54.75;96375.47;5005882;28;20073;-57
2022/12/10 00:16:41;;;;;;;28.50;15.67;;;2.00;99.90;;;5.60;54.79;96373.66;5004568;28;20370;-59
2022/12/10 00:19:09;;;;;;;27.70;15.20;;;2.00;99.90;;;5.60;54.19;96372.84;5020332;28;20082;-58
2022/12/10 00:21:37;;;;;;;27.63;15.83;;;2.00;99.90;;;5.58;54.01;96374.81;5004106;28;20248;-59
2022/12/10 00:24:06;;;;;;;30.27;16.07;;;2.00;99.90;;;5.58;54.29;96370.34;5005700;28;20042;-59
2022/12/10 00:26:37;;;;;;;27.73;15.67;;;2.00;99.90;;;5.58;54.65;96369.53;5004288;28;20261;-59
2022/12/10 00:29:09;;;;;;;29.03;15.73;;;2.00;99.90;;;5.59;54.56;96369.38;5005723;28;20034;-58
2022/12/10 00:31:38;;;;;;;28.17;16.27;;;2.00;99.90;;;5.62;54.06;96374.34;5011793;28;20053;-59
2022/12/10 00:34:08;;;;;;;28.30;15.70;;;2.00;99.90;;;5.63;54.07;96372.53;5005058;28;20046;-58
2022/12/10 00:36:47;;;;;;;24.30;15.20;;;2.00;99.90;;;5.60;54.79;96376.28;5019264;28;20058;-59
2022/12/10 00:39:19;;;;;;;30.80;16.67;;;2.00;99.90;;;5.63;54.08;96369.88;5003530;28;20054;-59
2022/12/10 00:41:48;;;;;;;29.53;15.13;;;2.00;99.90;;;5.64;54.32;96374.16;5003507;28;20046;-58
2022/12/10 00:44:16;;;;;;;24.63;15.77;;;2.00;99.90;;;5.63;53.89;96375.97;5011841;28;20345;-58
2022/12/10 00:46:44;;;;;;;28.13;16.63;;;1.90;99.90;;;5.64;54.33;96368.88;5003787;28;20045;-59
2022/12/10 00:49:12;;;;;;;27.77;16.20;;;1.90;99.90;;;5.65;54.04;96373.19;5003579;28;20370;-59
2022/12/10 00:51:40;;;;;;;26.70;15.70;;;1.90;99.90;;;5.65;54.12;96373.19;5004517;28;20044;-59
2022/12/10 00:54:09;;;;;;;27.73;15.97;;;2.00;99.90;;;5.67;54.26;96376.50;5004615;28;20332;-58
2022/12/10 00:56:37;;;;;;;26.20;15.53;;;2.00;99.90;;;5.68;53.81;96372.84;5004770;28;20344;-59
2022/12/10 00:59:05;;;;;;;33.67;18.53;;;1.90;99.90;;;5.65;54.09;96381.09;5003554;28;20048;-59
2022/12/10 01:01:40;;;;;;;29.80;18.43;;;1.90;99.90;;;5.64;54.20;96382.94;4994611;28;20057;-58
2022/12/10 01:04:17;;;;;;;30.13;17.33;;;1.90;99.90;;;5.65;53.51;96383.75;5003565;28;20042;-59
2022/12/10 01:06:49;;;;;;;27.40;16.63;;;1.90;99.90;;;5.59;53.47;96397.59;5003431;28;20236;-59
2022/12/10 01:09:22;;;;;;;23.70;14.60;;;1.70;99.90;;;5.50;53.72;96392.28;5004440;28;20340;-59
2022/12/10 01:11:52;;;;;;;28.47;17.47;;;1.70;99.90;;;5.46;53.49;96398.03;4987305;28;20042;-59
2022/12/10 01:14:25;;;;;;;37.97;20.63;;;1.60;99.90;;;5.46;54.45;96398.84;5003374;28;20046;-58
2022/12/10 01:16:57;;;;;;;33.58;17.58;;;1.70;99.90;;;5.47;53.96;96402.34;5003276;28;20042;-59
2022/12/10 01:19:25;;;;;;;28.27;16.80;;;1.70;99.90;;;5.45;53.87;96399.84;4995082;28;20050;-59
2022/12/10 01:21:55;;;;;;;27.77;15.67;;;1.70;99.90;;;5.47;53.92;96415.53;5002903;28;20053;-59
2022/12/10 01:24:25;;;;;;;31.37;17.83;;;1.70;99.90;;;5.45;53.50;96413.06;5003129;28;20042;-59
2022/12/10 01:26:55;;;;;;;28.37;15.73;;;1.70;99.90;;;5.45;53.83;96415.69;5003235;28;20064;-60
2022/12/10 01:29:23;;;;;;;26.90;15.20;;;1.70;99.90;;;5.39;53.47;96413.69;5004279;28;20080;-58
2022/12/10 01:31:53;;;;;;;32.53;17.83;;;1.60;99.90;;;5.33;54.09;96414.31;5001565;28;20048;-59
2022/12/10 01:34:22;;;;;;;30.60;17.53;;;1.50;99.90;;;5.27;54.36;96412.31;5002031;28;20054;-58
2022/12/10 01:36:53;;;;;;;28.47;16.40;;;1.40;99.90;;;5.27;54.44;96421.06;5004151;28;20042;-59
2022/12/10 01:39:23;;;;;;;29.77;16.67;;;1.40;99.90;;;5.22;54.32;96425.16;5003884;28;20072;-59
2022/12/10 01:41:59;;;;;;;25.23;16.20;;;1.30;99.90;;;5.17;53.83;96428.25;5002713;28;20045;-58
2022/12/10 01:44:27;;;;;;;25.93;15.23;;;1.30;99.90;;;5.17;54.01;96433.53;4986265;28;20046;-58
2022/12/10 01:47:00;;;;;;;27.53;16.07;;;1.30;99.90;;;5.18;54.22;96429.94;5003841;28;20056;-59
2022/12/10 01:49:39;;;;;;;47.00;21.80;;;1.40;99.90;;;5.20;54.07;96432.41;5003303;28;20056;-58
2022/12/10 01:52:10;;;;;;;38.83;22.17;;;1.50;99.90;;;5.24;53.83;96433.75;5003829;28;20050;-58
2022/12/10 01:54:43;;;;;;;46.93;21.00;;;1.50;99.90;;;5.27;54.21;96438.69;4996657;28;20042;-59
2022/12/10 01:57:20;;;;;;;35.33;18.27;;;1.60;99.90;;;5.28;54.17;96435.91;5018013;28;20061;-58
2022/12/10 01:59:56;;;;;;;33.67;18.40;;;1.60;99.90;;;5.30;53.81;96436.56;5010399;28;20064;-57
2022/12/10 02:02:42;;;;;;;28.33;15.50;;;1.60;99.90;;;5.31;54.45;96430.31;5002519;28;20053;-52
2022/12/10 02:05:42;;;;;;;29.47;16.37;;;1.60;99.90;;;5.28;54.54;96428.00;5002290;28;20046;-53
2022/12/10 02:08:53;;;;;;;35.23;18.43;;;1.70;99.90;;;5.29;54.10;96434.09;5002200;28;20355;-52
2022/12/10 02:11:44;;;;;;;32.37;17.70;;;1.70;99.90;;;5.33;54.43;96432.78;4987373;28;20056;-51
2022/12/10 02:14:47;;;;;;;23.43;15.50;;;1.60;99.90;;;5.33;54.32;96428.34;5002191;28;20280;-52
2022/12/10 02:17:30;;;;;;;37.43;19.53;;;1.60;99.90;;;5.38;54.00;96432.31;4988022;28;20076;-54
2022/12/10 02:20:10;;;;;;;33.30;18.70;;;1.70;99.90;;;5.38;53.84;96427.88;5017769;28;20061;-53
2022/12/10 02:22:58;;;;;;;28.07;16.80;;;1.70;99.90;;;5.36;54.00;96421.09;5002301;28;20061;-51
2022/12/10 02:25:45;;;;;;;29.83;16.70;;;1.70;99.90;;;5.37;53.61;96425.38;4985838;28;20046;-53
2022/12/10 02:28:44;;;;;;;38.30;20.60;;;1.70;99.90;;;5.35;53.89;96424.72;5002567;28;20057;-55
2022/12/10 02:31:18;;;;;;;36.13;21.37;;;1.70;99.90;;;5.38;54.13;96419.94;5017008;28;20060;-53
2022/12/10 02:33:56;;;;;;;36.83;18.87;;;1.70;99.90;;;5.38;54.29;96425.22;5001790;28;20366;-54
2022/12/10 02:36:31;;;;;;;26.20;15.13;;;1.70;99.90;;;5.39;54.24;96421.63;5001940;28;20046;-51
2022/12/10 02:39:02;;;;;;;27.83;16.07;;;1.70;99.90;;;5.38;53.71;96412.03;4985542;28;20042;-52
2022/12/10 02:41:53;;;;;;;26.13;16.27;;;1.70;99.90;;;5.35;54.06;96411.50;5001910;28;20054;-54
2022/12/10 02:44:26;;;;;;;27.87;15.70;;;1.70;99.90;;;5.40;54.63;96407.41;4985711;28;20053;-53
2022/12/10 02:46:58;;;;;;;27.60;15.53;;;1.70;99.90;;;5.41;54.25;96403.81;5017354;28;20182;-54
2022/12/10 02:49:32;;;;;;;28.17;16.33;;;1.70;99.90;;;5.41;54.19;96403.81;4986248;28;20094;-54
2022/12/10 02:52:14;;;;;;;25.17;16.30;;;1.70;99.90;;;5.38;54.08;96403.28;4985501;28;20054;-55
2022/12/10 02:54:48;;;;;;;27.67;16.50;;;1.70;99.90;;;5.38;54.47;96398.00;5009940;28;20230;-52
2022/12/10 02:57:46;;;;;;;24.70;14.93;;;1.60;99.90;;;5.35;54.27;96385.13;5002172;28;20068;-54
2022/12/10 03:00:20;;;;;;;25.87;14.87;;;1.60;99.90;;;5.34;54.39;96376.38;4986330;28;20072;-54
2022/12/10 03:03:40;;;;;;;27.73;16.23;;;1.60;99.90;;;5.21;54.14;96376.00;5001918;28;20046;-53
2022/12/10 03:06:22;;;;;;;27.97;15.23;;;1.60;99.90;;;5.18;53.75;96371.88;4985883;28;20042;-51
2022/12/10 03:09:07;;;;;;;29.63;16.30;;;1.40;99.90;;;5.08;53.79;96372.00;4994933;28;20038;-53
2022/12/10 03:11:38;;;;;;;27.33;14.73;;;1.40;99.90;;;5.04;54.21;96375.09;5001096;28;20044;-55
2022/12/10 03:14:32;;;;;;;29.83;15.57;;;1.30;99.90;;;4.90;53.84;96385.28;5001285;28;20053;-54
2022/12/10 03:17:03;;;;;;;26.25;15.15;;;1.20;99.90;;;4.87;54.47;96392.66;4996054;28;20054;-53
2022/12/10 03:19:39;;;;;;;27.80;15.70;;;1.10;99.90;;;4.79;54.50;96406.63;5002224;28;20042;-55
2022/12/10 03:22:09;;;;;;;26.73;16.83;;;1.00;99.90;;;4.76;54.10;96406.94;5001405;28;20046;-51
2022/12/10 03:24:37;;;;;;;30.40;16.27;;;1.00;99.90;;;4.76;54.75;96404.28;5003780;28;20049;-54
2022/12/10 03:27:08;;;;;;;28.97;16.13;;;1.00;99.90;;;4.79;54.78;96406.63;5005515;28;20064;-54
2022/12/10 03:29:46;;;;;;;23.37;15.40;;;1.10;99.90;;;4.83;54.55;96407.97;5005116;28;20061;-55
2022/12/10 03:32:15;;;;;;;31.53;16.70;;;1.10;99.90;;;4.89;54.57;96398.59;5005227;28;20042;-54
2022/12/10 03:34:44;;;;;;;27.23;15.83;;;1.20;99.90;;;4.95;54.62;96405.06;4997686;28;20039;-52
2022/12/10 03:37:13;;;;;;;29.60;16.47;;;1.30;99.90;;;4.96;54.73;96385.63;5005270;28;20052;-54
2022/12/10 03:39:42;;;;;;;30.03;16.13;;;1.20;99.90;;;4.97;54.34;96382.00;5004931;28;20048;-53
2022/12/10 03:42:10;;;;;;;26.93;16.07;;;1.20;99.90;;;4.95;54.54;96382.16;5004943;28;20054;-52
2022/12/10 03:44:40;;;;;;;28.77;15.63;;;1.20;99.90;;;4.90;54.39;96377.38;5004835;28;20052;-54
2022/12/10 03:47:12;;;;;;;28.27;16.70;;;1.10;99.90;;;4.82;54.28;96387.84;5006162;28;20294;-53
2022/12/10 03:49:42;;;;;;;29.00;15.77;;;1.00;99.90;;;4.73;54.48;96401.97;5005865;28;20042;-54
2022/12/10 03:52:10;;;;;;;28.37;16.40;;;0.90;99.90;;;4.66;54.93;96408.84;5020857;28;20046;-54
2022/12/10 03:54:39;;;;;;;31.37;18.00;;;0.80;99.90;;;4.65;54.56;96418.56;5004307;28;20053;-51
2022/12/10 03:57:07;;;;;;;30.33;16.70;;;0.80;99.90;;;4.67;55.00;96426.31;5005873;28;20046;-54
2022/12/10 03:59:34;;;;;;;29.97;16.73;;;0.80;99.90;;;4.70;54.88;96440.00;5004452;28;20046;-53
2022/12/10 04:02:03;;;;;;;27.43;15.80;;;0.90;99.90;;;4.68;55.07;96431.44;5004521;28;20042;-55
2022/12/10 04:04:31;;;;;;;28.43;15.40;;;0.90;99.90;;;4.66;54.97;96432.56;5004568;28;20042;-53
2022/12/10 04:06:58;;;;;;;31.03;16.70;;;0.80;99.90;;;4.66;54.65;96436.03;5004605;28;20049;-51
2022/12/10 04:09:26;;;;;;;29.47;15.80;;;0.80;99.90;;;4.65;55.38;96430.91;5005994;28;20201;-53
2022/12/10 04:11:58;;;;;;;29.13;18.10;;;0.80;99.90;;;4.58;55.37;96433.34;5005788;28;20050;-51
2022/12/10 04:17:15;;;;;;;27.33;15.73;;;0.80;99.90;;;4.63;55.11;96431.06;5005515;28;20046;-53
2022/12/10 04:19:43;;;;;;;29.03;15.90;;;0.80;99.90;;;4.65;55.10;96434.38;5005444;28;20044;-55
2022/12/10 04:27:44;;;;;;;24.00;14.63;;;0.80;99.90;;;4.66;55.13;96435.22;5004659;28;20057;-54
2022/12/10 04:30:12;;;;;;;24.50;16.13;;;0.90;99.90;;;4.69;55.19;96438.38;5003869;28;20046;-54
2022/12/10 04:32:40;;;;;;;30.57;16.03;;;0.90;99.90;;;4.77;55.03;96432.31;5001782;28;20044;-54
2022/12/10 04:35:09;;;;;;;31.07;16.13;;;1.10;99.90;;;4.81;54.71;96435.47;5001777;28;20050;-52
2022/12/10 04:37:37;;;;;;;25.07;16.97;;;1.10;99.90;;;4.82;54.94;96432.66;5004256;28;20049;-54
2022/12/10 04:40:06;;;;;;;28.33;16.90;;;1.10;99.90;;;4.86;54.38;96438.47;5003770;28;20252;-54
2022/12/10 04:42:34;;;;;;;30.43;15.87;;;1.10;99.90;;;4.89;54.90;96452.19;5004927;28;20060;-51
2022/12/10 04:45:02;;;;;;;31.20;17.90;;;1.20;99.90;;;4.91;54.48;96455.47;5004054;28;20240;-54
2022/12/10 04:47:30;;;;;;;26.20;15.90;;;1.20;99.90;;;4.91;54.88;96450.22;5004947;28;20057;-55
2022/12/10 04:49:58;;;;;;;28.73;17.37;;;1.10;99.90;;;4.89;54.61;96452.19;5003486;28;20252;-53
2022/12/10 04:52:26;;;;;;;27.63;16.57;;;1.10;99.90;;;4.88;54.29;96450.50;5004887;28;20244;-54
2022/12/10 04:54:53;;;;;;;30.47;16.60;;;1.10;99.90;;;4.85;54.68;96453.47;5003729;28;20042;-52
2022/12/10 04:57:21;;;;;;;30.93;15.37;;;1.00;99.90;;;4.87;54.34;96453.31;5004802;28;20050;-54
2022/12/10 04:59:49;;;;;;;24.50;15.53;;;1.10;99.90;;;4.89;55.04;96446.09;5003695;28;20062;-53
2022/12/10 05:02:17;;;;;;;31.47;17.40;;;1.10;99.90;;;4.91;54.60;96446.75;5004601;28;20048;-54
2022/12/10 05:04:45;;;;;;;27.20;16.07;;;1.10;99.90;;;4.97;54.67;96434.75;5004359;28;20042;-55
2022/12/10 05:07:12;;;;;;;24.93;16.13;;;1.20;99.90;;;4.97;54.22;96440.84;5004632;28;20364;-52
2022/12/10 05:09:40;;;;;;;30.67;17.47;;;1.30;99.90;;;4.97;54.50;96443.50;5004798;28;20057;-52
2022/12/10 05:12:08;;;;;;;29.97;15.37;;;1.20;99.90;;;4.93;54.71;96436.88;5004266;28;20042;-50
2022/12/10 05:14:36;;;;;;;26.20;15.60;;;1.10;99.90;;;4.94;54.66;96438.50;5003377;28;20046;-55
2022/12/10 05:17:04;;;;;;;29.23;16.60;;;1.20;99.90;;;4.91;54.61;96442.28;5004316;28;20048;-52
2022/12/10 05:19:32;;;;;;;26.43;16.07;;;1.20;99.90;;;4.90;54.37;96440.66;5004228;28;20072;-54
2022/12/10 05:24:46;;;;;;;30.80;16.93;;;1.10;99.90;;;4.90;54.99;96445.09;5004266;28;20232;-53
2022/12/10 05:27:14;;;;;;;26.40;14.57;;;1.10;99.90;;;4.87;54.91;96448.06;5003250;28;20044;-55
2022/12/10 05:29:43;;;;;;;29.57;16.17;;;1.10;99.90;;;4.88;54.69;96447.88;5003964;28;20245;-55
2022/12/10 05:32:10;;;;;;;28.57;16.07;;;1.10;99.90;;;4.87;54.64;96448.88;5002639;28;20038;-54
2022/12/10 05:34:38;;;;;;;29.47;17.00;;;1.20;99.90;;;4.88;54.92;96452.31;5004088;28;20256;-51
2022/12/10 05:37:06;;;;;;;33.73;16.07;;;1.10;99.90;;;4.85;54.16;96466.66;5003868;28;20050;-54
2022/12/10 05:39:34;;;;;;;28.40;16.57;;;1.00;99.90;;;4.69;54.72;96470.00;5003787;28;20046;-54
2022/12/10 05:42:01;;;;;;;31.77;18.63;;;0.80;99.90;;;4.65;54.61;96463.38;5003893;28;20068;-53
2022/12/10 05:44:29;;;;;;;32.13;17.60;;;0.70;99.90;;;4.67;54.91;96464.06;5003232;28;20057;-50
2022/12/10 05:46:57;;;;;;;32.87;16.77;;;0.80;99.90;;;4.63;54.79;96454.78;5003010;28;20042;-52
2022/12/10 05:49:25;;;;;;;31.63;17.70;;;0.80;99.90;;;4.61;54.91;96462.00;5004330;28;20064;-51
2022/12/10 05:51:55;;;;;;;29.93;16.37;;;0.80;99.90;;;4.65;54.92;96457.25;5003360;28;20045;-53
2022/12/10 05:54:23;;;;;;;27.30;16.60;;;0.80;99.90;;;4.59;55.28;96458.69;5003758;28;20249;-54
2022/12/10 05:56:51;;;;;;;31.17;16.67;;;0.70;99.90;;;4.57;55.03;96459.84;5002535;28;20049;-51
2022/12/10 05:59:19;;;;;;;30.43;16.57;;;0.70;99.90;;;4.51;55.27;96461.28;5002501;28;20049;-55
2022/12/10 06:01:47;;;;;;;32.03;17.40;;;0.60;99.90;;;4.44;55.13;96463.72;5002342;28;20052;-53
2022/12/10 06:04:14;;;;;;;26.63;15.77;;;0.60;99.90;;;4.46;55.66;96460.91;5003421;28;20042;-54
2022/12/10 06:06:44;;;;;;;31.40;17.30;;;0.60;99.90;;;4.50;55.56;96475.44;5003426;28;20049;-53
2022/12/10 06:09:13;;;;;;;27.57;16.23;;;0.70;99.90;;;4.47;55.75;96473.94;5002458;28;20193;-54
2022/12/10 06:11:41;;;;;;;32.60;17.87;;;0.70;99.90;;;4.45;55.53;96490.88;5017977;28;20222;-55
2022/12/10 06:14:09;;;;;;;28.63;16.57;;;0.60;99.90;;;4.38;55.76;96482.75;5003011;28;20341;-53
2022/12/10 06:16:40;;;;;;;27.60;15.80;;;0.60;99.90;;;4.37;55.54;96482.91;5001983;28;20052;-51
2022/12/10 06:19:07;;;;;;;31.47;16.63;;;0.60;99.90;;;4.37;55.89;96485.53;5003037;28;20046;-53
2022/12/10 06:21:35;;;;;;;35.13;18.50;;;0.50;99.90;;;4.40;55.51;96478.16;5003188;28;20042;-53
2022/12/10 06:24:03;;;;;;;26.83;17.23;;;0.60;99.90;;;4.46;55.75;96484.63;5002416;28;20052;-53
2022/12/10 06:26:31;;;;;;;27.70;16.37;;;0.60;99.90;;;4.45;55.41;96483.78;5002973;28;20042;-54
2022/12/10 06:29:00;;;;;;;28.73;16.23;;;0.60;99.90;;;4.46;55.96;96485.47;5001865;28;20048;-53
2022/12/10 06:31:28;;;;;;;30.77;16.43;;;0.70;99.90;;;4.46;55.74;96482.84;5002882;28;20052;-54
2022/12/10 06:33:55;;;;;;;25.63;15.67;;;0.60;99.90;;;4.43;55.92;96487.56;5003041;28;20046;-55
2022/12/10 06:36:23;;;;;;;26.70;15.90;;;0.60;99.90;;;4.37;55.86;96491.63;5002915;28;20151;-50
2022/12/10 06:38:51;;;;;;;32.17;17.17;;;0.60;99.90;;;4.37;55.53;96496.09;5002297;28;20050;-53
2022/12/10 06:41:20;;;;;;;35.13;17.60;;;0.60;99.90;;;4.42;55.83;96493.81;5002513;28;20362;-51
2022/12/10 06:43:49;;;;;;;30.50;16.43;;;0.60;99.90;;;4.47;55.34;96496.81;5002731;28;20050;-55
2022/12/10 06:46:20;;;;;;;33.67;19.33;;;0.70;99.90;;;4.50;55.83;96504.44;5003507;28;20049;-52
2022/12/10 06:48:48;;;;;;;37.37;18.93;;;0.80;99.90;;;4.54;56.13;96498.72;5001727;28;20049;-54
2022/12/10 06:51:17;;;;;;;34.33;18.60;;;0.80;99.90;;;4.60;55.28;96509.63;5002377;28;20042;-50
2022/12/10 06:53:46;;;;;;;26.43;16.87;;;0.90;99.90;;;4.59;55.36;96515.88;5001693;28;20251;-51
2022/12/10 06:56:17;;;;;;;29.23;17.20;;;0.80;99.90;;;4.58;55.29;96519.50;5001618;28;20046;-54
2022/12/10 06:58:45;;;;;;;36.67;20.07;;;0.80;99.90;;;4.55;55.06;96515.34;5000891;28;20054;-54
2022/12/10 07:01:16;;;;;;;35.50;17.93;;;0.80;99.90;;;4.56;55.44;96518.84;5001141;28;20042;-52
2022/12/10 07:03:47;;;;;;;30.97;16.60;;;0.70;99.90;;;4.50;55.48;96517.63;5002863;28;20064;-52
2022/12/10 07:06:14;;;;;;;29.13;16.83;;;0.70;99.90;;;4.48;55.11;96511.69;5001390;28;20050;-53
2022/12/10 07:08:42;;;;;;;30.63;16.47;;;0.70;99.90;;;4.31;55.47;96508.88;5001668;28;20073;-51
2022/12/10 07:11:14;;;;;;;33.60;18.53;;;0.50;99.90;;;4.32;55.65;96507.91;5001865;28;20044;-54
2022/12/10 07:13:42;;;;;;;32.87;18.17;;;0.50;99.90;;;4.35;55.25;96512.03;5001475;28;20052;-54
2022/12/10 07:16:21;;;;;;;33.63;18.47;;;0.50;99.90;;;4.27;55.33;96510.16;5002162;28;20068;-51
2022/12/10 07:18:51;;;;;;;37.13;18.73;;;0.60;99.90;;;4.36;55.29;96515.50;5002375;28;20046;-52
2022/12/10 07:21:26;;;;;;;34.33;18.23;;;0.60;99.90;;;4.39;55.57;96517.84;5000661;28;20050;-53
2022/12/10 07:23:57;;;;;;;31.37;18.47;;;0.70;99.90;;;4.44;55.54;96520.84;5002700;28;20056;-53
2022/12/10 07:26:30;;;;;;;33.37;18.23;;;0.70;99.90;;;4.47;55.12;96531.91;5002355;28;20052;-52
2022/12/10 07:29:00;;;;;;;37.43;19.87;;;0.70;99.90;;;4.49;55.51;96526.50;4995824;28;20053;-53
2022/12/10 07:31:28;;;;;;;37.10;19.83;;;0.80;99.90;;;4.53;55.17;96539.22;5000893;28;20046;-52
2022/12/10 07:33:58;;;;;;;32.20;18.00;;;0.80;99.90;;;4.56;54.91;96545.19;4990740;28;20141;-53
2022/12/10 07:36:27;;;;;;;34.47;18.00;;;0.80;99.90;;;4.51;55.14;96538.53;5000317;28;20065;-58
2022/12/10 07:38:55;;;;;;;32.87;17.40;;;0.70;99.90;;;4.51;55.42;96548.25;5002339;28;20047;-59
2022/12/10 07:41:24;;;;;;;38.53;18.07;;;0.70;99.90;;;4.46;55.24;96554.00;5002183;28;20375;-59
2022/12/10 07:43:52;;;;;;;36.10;19.27;;;0.70;99.90;;;4.49;54.87;96544.94;5001126;28;20065;-59
2022/12/10 07:46:27;;;;;;;33.63;17.70;;;0.70;99.90;;;4.52;54.90;96549.94;5002225;28;20193;-58
2022/12/10 07:48:56;;;;;;;30.10;16.37;;;0.70;99.90;;;4.48;55.25;96553.84;4994323;28;20062;-57
2022/12/10 07:51:24;;;;;;;33.43;16.47;;;0.60;99.90;;;4.37;55.40;96559.34;5000663;28;20272;-58
2022/12/10 07:53:53;;;;;;;28.90;17.53;;;0.60;99.90;;;4.39;55.32;96550.28;5002052;28;20044;-58
2022/12/10 07:56:24;;;;;;;32.20;16.03;;;0.50;99.90;;;4.43;55.17;96550.81;4984447;28;20267;-58
2022/12/10 07:58:53;;;;;;;32.67;17.57;;;0.60;99.90;;;4.42;55.64;96557.91;5001720;28;20054;-57
2022/12/10 08:01:24;;;;;;;27.33;17.30;;;0.60;99.90;;;4.46;55.57;96568.97;5000509;28;20054;-58
2022/12/10 08:03:56;;;;;;;33.43;16.20;;;0.70;99.90;;;4.53;55.45;96580.56;5000997;28;20052;-58
2022/12/10 08:06:27;;;;;;;27.87;15.47;;;0.80;99.90;;;4.52;55.54;96587.66;5001417;28;20053;-58
2022/12/10 08:08:57;;;;;;;25.93;15.77;;;0.80;99.90;;;4.51;55.25;96582.53;5001957;28;20051;-58
2022/12/10 08:11:26;;;;;;;25.67;15.83;;;0.70;99.90;;;4.24;55.72;96575.47;5005538;28;20054;-58
2022/12/10 08:13:55;;;;;;;28.07;16.50;;;0.60;99.90;;;4.26;55.79;96584.06;5005747;28;20042;-57
2022/12/10 08:16:28;;;;;;;32.57;18.00;;;0.50;99.90;;;4.24;56.12;96580.75;5005498;28;20360;-58
2022/12/10 08:18:59;;;;;;;26.53;17.10;;;0.50;99.90;;;4.32;56.24;96583.47;5005562;28;20046;-58
2022/12/10 08:21:30;;;;;;;33.77;17.60;;;0.60;99.90;;;4.28;56.64;96582.94;5004066;28;20056;-57
2022/12/10 08:24:00;;;;;;;31.00;17.70;;;0.60;99.90;;;4.30;56.32;96574.88;4996576;28;20046;-58
2022/12/10 08:26:32;;;;;;;32.20;18.60;;;0.50;99.90;;;4.38;56.16;96574.16;5005450;28;20042;-58
2022/12/10 08:29:00;;;;;;;30.03;16.97;;;0.60;99.90;;;4.45;56.21;96575.22;4997752;28;20042;-58
2022/12/10 08:31:30;;;;;;;31.10;17.67;;;0.70;99.90;;;4.50;56.51;96572.97;5003750;28;20259;-58
2022/12/10 08:34:13;;;;;;;31.20;17.93;;;0.70;99.90;;;4.57;55.91;96573.19;4998188;28;20042;-58
2022/12/10 08:36:42;;;;;;;32.23;16.73;;;0.80;99.90;;;4.53;55.72;96576.13;5003944;28;20053;-57
2022/12/10 08:39:14;;;;;;;33.07;17.47;;;0.80;99.90;;;4.55;55.63;96570.69;5004698;28;20042;-58
2022/12/10 08:41:44;;;;;;;24.57;16.00;;;0.80;99.90;;;4.63;55.36;96573.41;5005184;28;20054;-58
2022/12/10 08:44:13;;;;;;;31.53;16.83;;;0.90;99.90;;;4.64;55.89;96576.91;5020031;28;20142;-57
2022/12/10 08:46:41;;;;;;;26.67;16.23;;;0.90;99.90;;;4.60;55.88;96575.53;5003862;28;20056;-58
2022/12/10 08:49:09;;;;;;;28.13;16.87;;;0.80;99.90;;;4.61;55.64;96585.09;5003952;28;20128;-59
2022/12/10 08:51:37;;;;;;;32.00;16.93;;;0.80;99.90;;;4.62;55.69;96584.13;5003426;28;20068;-58
2022/12/10 08:54:04;;;;;;;27.93;15.83;;;0.80;99.90;;;4.66;55.21;96588.13;5005044;28;20372;-58
2022/12/10 08:56:33;;;;;;;30.00;16.80;;;0.90;99.90;;;4.69;55.60;96593.06;5004883;28;20064;-59
2022/12/10 08:59:00;;;;;;;28.43;15.90;;;0.90;99.90;;;4.66;55.32;96591.56;5004177;28;20053;-57
2022/12/10 09:01:28;;;;;;;28.73;16.93;;;0.90;99.90;;;4.71;55.48;96602.50;5004401;28;20046;-58
2022/12/10 09:03:56;;;;;;;33.73;17.37;;;0.90;99.90;;;4.68;56.03;96608.06;5003643;28;20056;-58
2022/12/10 09:06:25;;;;;;;31.00;16.43;;;1.00;99.90;;;4.74;55.33;96610.09;5004559;28;20047;-58
2022/12/10 09:08:53;;;;;;;33.43;17.23;;;1.00;99.90;;;4.65;55.65;96602.25;5003153;28;20046;-59
2022/12/10 09:11:31;;;;;;;27.30;17.57;;;0.90;99.90;;;4.65;54.97;96611.03;5003938;28;20260;-59
2022/12/10 09:14:00;;;;;;;27.17;15.37;;;0.90;99.90;;;4.56;56.03;96597.91;5004518;28;20038;-58
2022/12/10 09:16:35;;;;;;;31.43;18.30;;;0.90;99.90;;;4.68;55.55;96597.53;5004554;28;20076;-59
2022/12/10 09:19:05;;;;;;;31.67;18.33;;;0.90;99.90;;;4.76;55.82;96602.06;4996073;28;20052;-58
2022/12/10 09:21:32;;;;;;;33.40;17.60;;;1.00;99.90;;;4.83;55.47;96612.84;5003086;28;20056;-58
2022/12/10 09:24:00;;;;;;;33.67;18.10;;;1.10;99.90;;;4.81;55.57;96613.00;5003453;28;20050;-58
2022/12/10 09:26:28;;;;;;;28.00;15.63;;;1.10;99.90;;;4.77;55.34;96613.41;5004848;28;20058;-58
2022/12/10 09:28:57;;;;;;;32.60;15.73;;;1.00;99.90;;;4.80;54.96;96621.88;5004247;28;20050;-59
2022/12/10 09:31:26;;;;;;;29.40;16.00;;;1.00;99.90;;;4.68;55.35;96628.34;5003877;28;20050;-59
2022/12/10 09:33:57;;;;;;;29.60;16.07;;;1.00;99.90;;;4.61;55.65;96638.63;5004102;28;20034;-58
2022/12/10 09:36:25;;;;;;;30.57;17.53;;;0.90;99.90;;;4.73;55.06;96640.09;5004344;28;20065;-58
2022/12/10 09:39:00;;;;;;;26.43;14.87;;;1.00;99.90;;;4.77;55.40;96642.44;5003429;28;20053;-59
2022/12/10 09:41:54;;;;;;;27.67;15.77;;;1.00;99.90;;;4.67;55.13;96629.31;5003663;28;20340;-58
2022/12/10 09:44:49;;;;;;;28.67;15.80;;;1.00;99.90;;;4.55;55.27;96631.31;4996216;28;20064;-58
2022/12/10 09:47:17;;;;;;;29.80;16.87;;;1.00;99.90;;;4.74;55.47;96641.75;4998365;28;20042;-57
2022/12/10 09:50:31;;;;;;;26.83;16.17;;;1.00;99.90;;;4.82;55.54;96627.81;5018833;28;20046;-58
2022/12/10 09:53:02;;;;;;;23.77;14.68;;;1.20;99.90;;;4.95;55.23;96632.72;5002811;28;20042;-58
2022/12/10 09:55:45;;;;;;;29.07;17.03;;;1.20;99.90;;;4.73;55.36;96626.91;5002543;28;20046;-57
2022/12/10 09:58:21;;;;;;;28.33;15.70;;;1.10;99.90;;;4.89;55.11;96625.41;4996075;28;20052;-59
2022/12/10 10:01:04;;;;;;;30.10;17.20;;;1.20;99.90;;;4.87;55.41;96636.13;5002863;28;20072;-58
2022/12/10 10:03:40;;;;;;;26.53;13.87;;;1.10;99.90;;;4.73;55.30;96634.00;5018628;28;20050;-58
2022/12/10 10:06:13;;;;;;;29.67;17.70;;;1.10;99.90;;;4.73;55.69;96634.00;4996073;28;20052;-57
2022/12/10 10:08:46;;;;;;;27.45;15.32;;;1.10;99.90;;;4.79;55.57;96637.81;5002361;28;20247;-58
2022/12/10 10:11:31;;;;;;;26.93;15.40;;;1.10;99.90;;;4.88;55.97;96636.94;5001962;28;20221;-56
2022/12/10 10:14:15;;;;;;;29.90;16.90;;;1.20;99.90;;;4.84;54.90;96632.94;5002392;28;20352;-58
2022/12/10 10:16:55;;;;;;;24.30;15.00;;;1.20;99.90;;;4.96;55.13;96634.38;5003054;28;20050;-57
2022/12/10 10:19:37;;;;;;;27.70;15.00;;;1.20;99.90;;;5.05;54.59;96638.75;5003017;28;20050;-56
2022/12/10 10:22:05;;;;;;;27.70;14.90;;;1.30;99.90;;;5.04;54.61;96636.25;4994365;28;20353;-57
2022/12/10 10:24:45;;;;;;;26.77;15.53;;;1.30;99.90;;;5.01;55.03;96628.66;5002208;28;20244;-57
2022/12/10 10:27:30;;;;;;;27.77;16.33;;;1.30;99.90;;;4.88;55.01;96631.66;4996342;28;20034;-57
2022/12/10 10:30:01;;;;;;;28.37;16.43;;;1.30;99.90;;;4.94;55.76;96623.13;5001679;28;20047;-56
2022/12/10 10:32:53;;;;;;;27.27;13.83;;;1.30;99.90;;;4.23;55.96;96621.25;5002824;28;20042;-57
2022/12/10 10:35:41;;;;;;;25.83;16.00;;;1.00;99.90;;;4.63;55.92;96620.03;4994210;28;20054;-57
2022/12/10 10:38:27;;;;;;;34.30;16.80;;;1.20;99.90;;;4.82;55.86;96617.25;4995481;28;20516;-57
2022/12/10 10:41:02;;;;;;;29.07;16.70;;;1.30;99.90;;;4.68;55.84;96615.97;5002480;28;20260;-57
2022/12/10 10:43:42;;;;;;;72.57;32.73;;;1.20;99.90;;;4.73;55.43;96618.19;5003469;28;20056;-57
2022/12/10 10:46:22;;;;;;;39.93;20.93;;;1.10;99.90;;;4.57;56.12;96610.91;5001806;28;20053;-56
2022/12/10 10:48:50;;;;;;;28.97;16.90;;;1.10;99.90;;;4.45;56.25;96628.75;5002725;28;20042;-55
2022/12/10 10:51:23;;;;;;;40.63;22.50;;;1.10;99.90;;;4.76;55.35;96623.16;5001340;28;20038;-58
2022/12/10 10:53:55;;;;;;;27.47;15.83;;;1.20;99.90;;;4.72;55.38;96637.59;5001514;28;20053;-57